createdAt,value
2019-02-16T00:00:00.543Z,25.70
2019-02-16T00:02:37.455Z,25.90
2019-02-16T00:05:14.384Z,26.10
2019-02-16T00:07:52.587Z,26.10
2019-02-16T00:10:29.529Z,26.10
2019-02-16T00:13:06.439Z,26.00
2019-02-16T00:15:43.509Z,26.00
2019-02-16T00:18:20.366Z,26.10
2019-02-16T00:21:03.651Z,26.30
2019-02-16T00:23:35.767Z,26.40
2019-02-16T00:26:13.689Z,26.40
2019-02-16T00:28:50.689Z,26.50
2019-02-16T00:31:27.697Z,26.80
2019-02-16T00:34:04.606Z,26.50
2019-02-16T00:36:42.991Z,26.80
2019-02-16T00:41:54.396Z,26.70
2019-02-16T00:44:31.320Z,26.80
2019-02-16T00:47:08.257Z,26.90
2019-02-16T00:49:45.135Z,27.00
2019-02-16T00:52:22.122Z,26.40
2019-02-16T00:54:59.055Z,26.80
2019-02-16T00:57:36.054Z,27.10
2019-02-16T01:00:14.968Z,27.00
2019-02-16T01:02:52.025Z,26.90
2019-02-16T01:05:28.927Z,27.10
2019-02-16T01:08:05.853Z,27.20
2019-02-16T01:13:17.202Z,27.60
2019-02-16T01:18:28.652Z,27.50
2019-02-16T01:21:05.570Z,27.50
2019-02-16T01:23:42.502Z,27.20
2019-02-16T01:26:19.428Z,27.20
2019-02-16T01:28:56.459Z,27.40
2019-02-16T01:34:07.781Z,27.50
2019-02-16T01:36:44.782Z,27.80
2019-02-16T01:39:21.797Z,27.70
2019-02-16T01:41:58.725Z,27.60
2019-02-16T01:44:36.295Z,27.60
2019-02-16T01:47:13.175Z,27.70
2019-02-16T01:49:50.068Z,27.90
2019-02-16T01:52:27.049Z,27.80
2019-02-16T01:55:04.300Z,27.80
2019-02-16T02:00:18.402Z,27.70
2019-02-16T02:02:55.356Z,28.20
2019-02-16T02:05:32.297Z,27.90
2019-02-16T02:08:09.207Z,27.90
2019-02-16T02:10:46.535Z,27.60
2019-02-16T02:15:57.844Z,28.00
2019-02-16T02:18:34.744Z,28.10
2019-02-16T02:21:11.709Z,28.60
2019-02-16T02:26:23.358Z,28.20
2019-02-16T02:34:10.362Z,28.00
2019-02-16T02:36:50.538Z,28.00
2019-02-16T02:39:27.447Z,28.20
2019-02-16T02:42:04.373Z,28.00
2019-02-16T02:44:41.310Z,27.90
2019-02-16T02:47:18.227Z,28.00
2019-02-16T02:49:55.149Z,28.00
2019-02-16T02:52:32.120Z,28.10
2019-02-16T02:55:09.071Z,28.10
2019-02-16T02:57:45.964Z,28.10
2019-02-16T03:00:22.942Z,28.00
2019-02-16T03:03:00.153Z,28.30
2019-02-16T03:05:37.003Z,28.00
2019-02-16T03:08:14.006Z,28.20
2019-02-16T03:10:50.874Z,28.20
2019-02-16T03:13:27.838Z,28.20
2019-02-16T03:16:04.756Z,28.20
2019-02-16T03:18:41.718Z,28.40
2019-02-16T03:21:18.812Z,28.30
2019-02-16T03:23:56.648Z,28.30
2019-02-16T03:26:58.888Z,28.40
2019-02-16T03:29:43.289Z,28.30
2019-02-16T03:32:33.869Z,28.30
2019-02-16T03:35:39.009Z,28.30
2019-02-16T03:38:48.468Z,28.60
2019-02-16T03:41:25.499Z,28.70
2019-02-16T03:44:02.434Z,29.10
2019-02-16T03:46:39.470Z,28.90
2019-02-16T03:49:16.594Z,28.90
2019-02-16T03:51:53.818Z,29.20
2019-02-16T03:54:31.027Z,29.00
2019-02-16T04:07:27.663Z,29.50
2019-02-16T04:15:14.105Z,29.10
2019-02-16T04:17:51.456Z,28.80
2019-02-16T04:20:28.388Z,29.30
2019-02-16T04:23:05.371Z,29.20
2019-02-16T04:25:42.555Z,29.10
2019-02-16T04:28:19.518Z,29.30
2019-02-16T04:30:58.021Z,29.20
2019-02-16T04:33:35.214Z,29.20
2019-02-16T04:36:12.134Z,29.30
2019-02-16T04:38:49.335Z,29.40
2019-02-16T04:41:26.262Z,29.50
2019-02-16T04:44:03.544Z,29.40
2019-02-16T04:46:40.452Z,29.70
2019-02-16T04:49:17.675Z,29.50
2019-02-16T04:51:54.622Z,29.60
2019-02-16T04:54:31.698Z,29.50
2019-02-16T04:59:48.133Z,29.40
2019-02-16T05:02:25.227Z,29.30
2019-02-16T05:05:02.353Z,29.50
2019-02-16T05:07:39.346Z,29.50
2019-02-16T05:10:16.535Z,29.60
2019-02-16T05:12:53.428Z,29.60
2019-02-16T05:15:30.616Z,29.60
2019-02-16T05:20:42.104Z,29.00
2019-02-16T05:23:19.365Z,29.40
2019-02-16T05:28:30.700Z,29.00
2019-02-16T05:31:07.936Z,28.50
2019-02-16T05:41:28.982Z,29.30
2019-02-16T05:44:05.954Z,28.90
2019-02-16T06:04:44.975Z,28.50
2019-02-16T06:07:22.033Z,28.00
2019-02-16T06:15:08.841Z,28.00
2019-02-16T06:17:45.975Z,27.60
2019-02-16T06:20:22.885Z,27.60
2019-02-16T06:23:04.190Z,27.70
2019-02-16T06:25:38.148Z,27.50
2019-02-16T06:28:15.143Z,27.30
2019-02-16T06:30:52.316Z,27.30
2019-02-16T06:33:31.147Z,27.40
2019-02-16T06:36:13.716Z,27.20
2019-02-16T06:41:25.236Z,27.30
2019-02-16T06:44:02.202Z,27.60
2019-02-16T06:46:40.532Z,27.70
2019-02-16T06:49:17.694Z,27.60
2019-02-16T06:54:31.734Z,27.40
2019-02-16T06:57:29.376Z,27.50
2019-02-16T07:00:06.426Z,27.20
2019-02-16T07:02:43.860Z,27.30
2019-02-16T07:07:56.224Z,27.20
2019-02-16T07:10:34.627Z,27.10
2019-02-16T07:13:11.686Z,27.10
2019-02-16T07:18:32.820Z,26.80
2019-02-16T07:23:44.903Z,26.50
2019-02-16T07:26:22.370Z,26.80
2019-02-16T07:28:59.378Z,26.70
2019-02-16T07:31:36.286Z,26.80
2019-02-16T07:39:24.145Z,26.40
2019-02-16T07:42:01.075Z,26.50
2019-02-16T07:50:52.547Z,26.30
2019-02-16T07:53:52.885Z,26.20
2019-02-16T07:56:54.825Z,25.90
2019-02-16T07:59:45.971Z,26.40
2019-02-16T08:05:41.352Z,25.70
2019-02-16T08:11:38.605Z,26.30
2019-02-16T08:14:36.219Z,26.00
2019-02-16T08:29:16.606Z,26.30
2019-02-16T08:32:17.785Z,25.60
2019-02-16T08:38:06.805Z,23.80
2019-02-16T08:52:20.733Z,25.50
2019-02-16T08:55:12.267Z,25.40
2019-02-16T08:58:03.315Z,25.10
2019-02-16T09:03:59.272Z,25.40
2019-02-16T09:06:48.124Z,25.40
2019-02-16T09:09:42.742Z,25.30
2019-02-16T09:12:45.244Z,25.30
2019-02-16T09:26:58.497Z,25.30
2019-02-16T09:29:58.095Z,25.70
2019-02-16T09:33:02.672Z,25.10
2019-02-16T09:38:57.973Z,25.20
2019-02-16T09:41:55.358Z,25.40
2019-02-16T09:48:02.541Z,24.80
2019-02-16T09:54:08.307Z,25.30
2019-02-16T10:11:45.973Z,24.80
2019-02-16T10:17:34.137Z,25.30
2019-02-16T10:26:25.115Z,24.70
2019-02-16T10:29:15.811Z,24.70
2019-02-16T10:32:05.529Z,25.10
2019-02-16T10:34:52.443Z,24.80
2019-02-16T10:38:04.909Z,25.20
2019-02-16T10:40:58.208Z,24.80
2019-02-16T10:46:56.795Z,24.80
2019-02-16T10:49:59.199Z,24.50
2019-02-16T10:52:59.298Z,25.70
2019-02-16T10:55:57.782Z,24.80
2019-02-16T10:58:52.412Z,24.50
2019-02-16T11:01:58.113Z,24.50
2019-02-16T11:04:51.039Z,24.80
2019-02-16T11:07:38.890Z,25.30
2019-02-16T11:16:18.832Z,24.00
2019-02-16T11:19:13.601Z,24.30
2019-02-16T11:22:08.371Z,24.20
2019-02-16T11:27:56.437Z,24.70
2019-02-16T11:30:49.295Z,24.30
2019-02-16T11:33:44.547Z,24.30
2019-02-16T11:36:28.344Z,24.80
2019-02-16T11:39:28.468Z,25.20
2019-02-16T11:42:23.517Z,25.10
2019-02-16T11:45:16.256Z,25.30
2019-02-16T11:48:03.825Z,24.40
2019-02-16T11:50:51.357Z,24.50
2019-02-16T11:53:48.712Z,24.50
2019-02-16T11:59:38.247Z,27.80
2019-02-16T12:02:39.836Z,24.30
2019-02-16T12:05:31.342Z,24.50
2019-02-16T12:17:14.545Z,24.50
2019-02-16T12:23:03.920Z,24.30
2019-02-16T12:25:56.748Z,24.30
2019-02-16T12:28:47.010Z,24.20
2019-02-16T12:31:34.952Z,24.60
2019-02-16T12:34:29.085Z,24.20
2019-02-16T12:37:18.602Z,24.30
2019-02-16T12:40:04.651Z,24.20
2019-02-16T12:42:59.783Z,24.40
2019-02-16T12:45:57.449Z,24.00
2019-02-16T12:48:46.868Z,24.30
2019-02-16T12:51:53.549Z,24.40
2019-02-16T12:54:42.372Z,24.30
2019-02-16T12:57:32.575Z,24.00
2019-02-16T13:00:20.461Z,24.00
2019-02-16T13:06:05.906Z,24.70
2019-02-16T13:11:53.143Z,24.30
2019-02-16T13:14:41.982Z,24.00
2019-02-16T13:17:31.103Z,24.00
2019-02-16T13:20:33.589Z,24.00
2019-02-16T13:23:16.786Z,23.90
2019-02-16T13:26:06.345Z,24.20
2019-02-16T13:28:57.874Z,23.70
2019-02-16T13:31:44.788Z,24.20
2019-02-16T13:34:30.360Z,24.00
2019-02-16T13:37:23.173Z,24.10
2019-02-16T13:40:24.570Z,23.70
2019-02-16T13:43:09.543Z,23.90
2019-02-16T13:48:57.657Z,23.90
2019-02-16T13:51:46.948Z,23.60
2019-02-16T13:54:33.290Z,23.70
2019-02-16T13:57:36.971Z,24.10
2019-02-16T14:00:20.083Z,23.70
2019-02-16T14:03:22.187Z,23.50
2019-02-16T14:06:17.240Z,23.90
2019-02-16T14:09:17.777Z,24.20
2019-02-16T14:12:19.255Z,24.10
2019-02-16T14:15:15.090Z,23.70
2019-02-16T14:17:54.601Z,23.40
2019-02-16T14:23:06.506Z,23.60
2019-02-16T14:25:51.154Z,23.60
2019-02-16T14:31:03.206Z,23.50
2019-02-16T14:36:15.171Z,23.30
2019-02-16T14:39:09.851Z,23.60
2019-02-16T14:44:21.588Z,23.70
2019-02-16T14:46:58.651Z,23.10
2019-02-16T14:49:36.446Z,23.80
2019-02-16T14:52:12.135Z,23.70
2019-02-16T14:59:58.281Z,23.30
2019-02-16T15:02:35.209Z,23.70
2019-02-16T15:05:12.965Z,23.20
2019-02-16T15:07:49.871Z,23.10
2019-02-16T15:10:27.227Z,23.00
2019-02-16T15:13:08.439Z,23.40
2019-02-16T15:15:45.629Z,23.20
2019-02-16T15:18:24.192Z,23.30
2019-02-16T15:34:00.223Z,23.10
2019-02-16T15:41:46.835Z,23.10
2019-02-16T15:44:23.826Z,23.30
2019-02-16T15:47:00.973Z,23.50
2019-02-16T15:49:37.874Z,23.70
2019-02-16T15:52:15.483Z,23.60
2019-02-16T15:57:27.379Z,23.30
2019-02-16T16:00:04.384Z,23.60
2019-02-16T16:05:16.723Z,22.70
2019-02-16T16:08:00.264Z,22.80
2019-02-16T16:10:44.415Z,22.70
2019-02-16T16:13:31.950Z,22.90
2019-02-16T16:19:31.114Z,23.50
2019-02-16T16:22:20.562Z,23.00
2019-02-16T16:25:09.716Z,22.80
2019-02-16T16:33:41.968Z,23.10
2019-02-16T16:36:55.158Z,23.00
2019-02-16T16:42:41.045Z,22.30
2019-02-16T16:45:47.709Z,22.60
2019-02-16T16:48:45.892Z,22.90
2019-02-16T16:54:47.198Z,22.20
2019-02-16T17:00:38.228Z,22.90
2019-02-16T17:03:35.223Z,23.30
2019-02-16T17:09:32.995Z,22.60
2019-02-16T17:12:34.981Z,23.00
2019-02-16T17:18:25.835Z,22.40
2019-02-16T17:24:22.064Z,22.90
2019-02-16T17:30:24.033Z,22.80
2019-02-16T17:33:24.095Z,22.10
2019-02-16T17:39:03.414Z,22.40
2019-02-16T17:44:56.918Z,22.80
2019-02-16T17:47:57.516Z,22.10
2019-02-16T17:50:42.151Z,22.60
2019-02-16T17:56:16.236Z,21.10
2019-02-16T17:59:09.389Z,22.30
2019-02-16T18:04:52.640Z,22.90
2019-02-16T18:07:52.931Z,22.70
2019-02-16T18:13:43.229Z,22.10
2019-02-16T18:16:36.665Z,22.60
2019-02-16T18:19:36.714Z,22.50
2019-02-16T18:22:19.633Z,21.40
2019-02-16T18:28:30.196Z,22.30
2019-02-16T18:31:24.754Z,22.10
2019-02-16T18:34:22.023Z,22.00
2019-02-16T18:37:10.091Z,22.30
2019-02-16T18:39:59.343Z,21.90
2019-02-16T18:42:51.965Z,22.40
2019-02-16T18:45:46.851Z,22.70
2019-02-16T18:48:34.245Z,22.60
2019-02-16T18:54:36.151Z,22.00
2019-02-16T18:57:21.920Z,22.50
2019-02-16T19:00:13.824Z,22.20
2019-02-16T19:03:06.320Z,22.60
2019-02-16T19:06:03.406Z,21.50
2019-02-16T19:11:48.063Z,21.90
2019-02-16T19:14:34.155Z,21.80
2019-02-16T19:20:20.557Z,22.60
2019-02-16T19:23:23.483Z,21.80
2019-02-16T19:26:16.423Z,22.00
2019-02-16T19:32:00.495Z,22.50
2019-02-16T19:40:39.089Z,22.00
2019-02-16T19:43:25.287Z,22.10
2019-02-16T19:46:17.936Z,22.20
2019-02-16T19:49:19.223Z,22.60
2019-02-16T19:55:14.531Z,21.60
2019-02-16T19:58:08.042Z,21.70
2019-02-16T20:01:02.773Z,22.20
2019-02-16T20:03:51.152Z,23.80
2019-02-16T20:06:45.228Z,22.30
2019-02-16T20:09:39.503Z,22.20
2019-02-16T20:12:36.760Z,21.80
2019-02-16T20:15:46.471Z,22.40
2019-02-16T20:18:30.675Z,21.80
2019-02-16T20:27:17.398Z,22.60
2019-02-16T20:33:00.520Z,21.70
2019-02-16T20:35:43.960Z,19.50
2019-02-16T20:38:50.644Z,22.20
2019-02-16T20:41:51.734Z,22.10
2019-02-16T20:44:42.114Z,22.40
2019-02-16T20:47:29.605Z,23.30
2019-02-16T20:50:13.533Z,22.80
2019-02-16T20:53:07.799Z,22.50
2019-02-16T20:56:02.274Z,22.40
2019-02-16T21:01:36.106Z,22.30
2019-02-16T21:04:42.603Z,22.80
2019-02-16T21:07:35.235Z,22.50
2019-02-16T21:10:30.063Z,22.90
2019-02-16T21:15:54.925Z,20.20
2019-02-16T21:18:37.113Z,22.70
2019-02-16T21:21:23.366Z,22.60
2019-02-16T21:24:08.828Z,23.00
2019-02-16T21:27:01.212Z,23.30
2019-02-16T21:29:45.301Z,22.90
2019-02-16T21:32:28.170Z,23.30
2019-02-16T21:35:14.139Z,23.00
2019-02-16T21:38:01.184Z,22.90
2019-02-16T21:44:03.477Z,23.30
2019-02-16T21:46:47.955Z,23.40
2019-02-16T21:49:48.222Z,23.50
2019-02-16T21:52:32.243Z,24.00
2019-02-16T21:58:07.764Z,23.50
2019-02-16T22:00:54.405Z,24.00
2019-02-16T22:03:46.879Z,23.60
2019-02-16T22:06:32.734Z,23.90
2019-02-16T22:12:11.793Z,23.70
2019-02-16T22:14:48.664Z,23.90
2019-02-16T22:17:25.669Z,24.00
2019-02-16T22:22:37.520Z,25.00
2019-02-16T22:27:49.255Z,24.10
2019-02-16T22:30:26.564Z,24.30
2019-02-16T22:33:03.556Z,24.60
2019-02-16T22:35:43.008Z,24.70
2019-02-16T22:38:19.949Z,24.70
2019-02-16T22:40:57.088Z,24.60
2019-02-16T22:43:34.072Z,24.80
2019-02-16T22:51:21.776Z,25.10
2019-02-16T22:53:58.693Z,25.00
2019-02-16T22:59:09.974Z,25.10
2019-02-16T23:01:47.717Z,25.30
2019-02-16T23:04:25.008Z,25.10
2019-02-16T23:07:02.400Z,25.30
2019-02-16T23:09:39.468Z,25.30
2019-02-16T23:17:25.510Z,25.50
2019-02-16T23:25:11.884Z,26.00
2019-02-16T23:27:49.214Z,26.10
2019-02-16T23:30:26.533Z,26.10
2019-02-16T23:33:04.208Z,26.40
2019-02-16T23:35:43.546Z,26.30
2019-02-16T23:38:19.427Z,26.40
2019-02-16T23:40:56.624Z,26.40
2019-02-16T23:43:33.959Z,26.40
2019-02-16T23:48:45.530Z,26.70
2019-02-16T23:51:22.550Z,26.60
2019-02-16T23:53:59.511Z,26.80
2019-02-16T23:56:36.740Z,27.00
2019-02-16T23:59:14.405Z,26.90
